createdAt,value
2018-09-10T00:00:35.912Z,62.40
2018-09-10T00:03:04.614Z,62.50
2018-09-10T00:05:33.252Z,62.50
2018-09-10T00:08:01.892Z,62.80
2018-09-10T00:10:30.688Z,63.00
2018-09-10T00:12:59.356Z,63.30
2018-09-10T00:15:27.994Z,63.40
2018-09-10T00:17:58.334Z,63.20
2018-09-10T00:20:26.952Z,63.50
2018-09-10T00:22:55.633Z,63.70
2018-09-10T00:25:24.266Z,64.00
2018-09-10T00:27:53.730Z,64.10
2018-09-10T00:30:22.418Z,64.50
2018-09-10T00:32:51.213Z,64.40
2018-09-10T00:35:19.875Z,64.60
2018-09-10T00:37:50.349Z,64.50
2018-09-10T00:40:19.007Z,64.50
2018-09-10T00:42:47.645Z,65.00
2018-09-10T00:45:16.312Z,65.60
2018-09-10T00:47:45.031Z,64.90
2018-09-10T00:50:13.709Z,65.30
2018-09-10T00:52:42.397Z,65.10
2018-09-10T00:55:11.081Z,65.20
2018-09-10T00:57:39.810Z,65.10
2018-09-10T01:00:08.446Z,65.20
2018-09-10T01:02:37.113Z,65.10
2018-09-10T01:05:05.771Z,65.20
2018-09-10T01:07:34.455Z,65.40
2018-09-10T01:10:03.119Z,65.40
2018-09-10T01:12:31.784Z,65.40
2018-09-10T01:15:00.411Z,65.60
2018-09-10T01:17:29.204Z,65.70
2018-09-10T01:19:57.895Z,65.30
2018-09-10T01:22:26.563Z,66.00
2018-09-10T01:24:55.218Z,66.20
2018-09-10T01:27:23.845Z,66.60
2018-09-10T01:29:52.515Z,66.30
2018-09-10T01:32:21.171Z,66.30
2018-09-10T01:34:55.310Z,66.50
2018-09-10T01:37:23.971Z,67.10
2018-09-10T01:39:52.639Z,67.70
2018-09-10T01:42:21.281Z,66.60
2018-09-10T01:44:49.950Z,66.50
2018-09-10T01:47:18.607Z,66.60
2018-09-10T01:49:47.252Z,66.30
2018-09-10T01:52:15.911Z,66.20
2018-09-10T01:54:44.576Z,66.40
2018-09-10T01:57:13.228Z,66.10
2018-09-10T01:59:41.874Z,66.40
2018-09-10T02:02:10.564Z,66.50
2018-09-10T02:04:39.224Z,66.50
2018-09-10T02:07:07.916Z,66.30
2018-09-10T02:09:36.548Z,66.30
2018-09-10T02:12:05.200Z,66.20
2018-09-10T02:14:33.839Z,66.30
2018-09-10T02:17:02.556Z,66.50
2018-09-10T02:19:31.247Z,66.10
2018-09-10T02:21:59.906Z,65.80
2018-09-10T02:24:28.545Z,66.00
2018-09-10T02:29:32.245Z,66.70
2018-09-10T02:32:00.893Z,66.80
2018-09-10T02:34:29.575Z,66.80
2018-09-10T02:36:58.259Z,67.60
2018-09-10T02:39:26.911Z,67.70
2018-09-10T02:41:55.627Z,68.10
2018-09-10T02:44:24.296Z,67.70
2018-09-10T02:46:52.951Z,67.80
2018-09-10T02:49:21.592Z,68.00
2018-09-10T02:51:50.257Z,68.00
2018-09-10T02:54:18.902Z,68.00
2018-09-10T02:56:47.551Z,68.20
2018-09-10T02:59:16.298Z,67.90
2018-09-10T03:01:45.304Z,68.00
2018-09-10T03:04:14.116Z,68.20
2018-09-10T03:06:42.789Z,68.30
2018-09-10T03:09:11.468Z,68.50
2018-09-10T03:11:40.121Z,68.50
2018-09-10T03:14:09.124Z,68.50
2018-09-10T03:16:37.936Z,68.90
2018-09-10T03:19:06.616Z,69.50
2018-09-10T03:21:35.284Z,68.80
2018-09-10T03:24:04.005Z,69.00
2018-09-10T03:26:32.664Z,69.50
2018-09-10T03:29:01.316Z,69.40
2018-09-10T03:31:29.977Z,70.20
2018-09-10T03:33:58.629Z,70.60
2018-09-10T03:36:27.267Z,70.90
2018-09-10T03:38:55.938Z,71.30
2018-09-10T03:41:24.604Z,71.80
2018-09-10T03:43:53.272Z,71.30
2018-09-10T03:46:21.932Z,71.00
2018-09-10T03:48:50.612Z,71.30
2018-09-10T03:51:19.296Z,71.30
2018-09-10T03:53:48.088Z,70.80
2018-09-10T03:56:16.852Z,70.90
2018-09-10T03:58:45.472Z,71.30
2018-09-10T04:01:14.144Z,71.60
2018-09-10T04:03:42.796Z,71.70
2018-09-10T04:06:11.490Z,71.50
2018-09-10T04:08:40.154Z,71.20
2018-09-10T04:11:08.808Z,71.30
2018-09-10T04:13:37.446Z,71.50
2018-09-10T04:16:06.120Z,71.40
2018-09-10T04:18:34.780Z,71.10
2018-09-10T04:21:03.440Z,71.40
2018-09-10T04:23:32.109Z,70.60
2018-09-10T04:26:00.864Z,70.60
2018-09-10T04:28:29.523Z,70.60
2018-09-10T04:30:58.188Z,70.40
2018-09-10T04:33:26.999Z,70.10
2018-09-10T04:35:55.657Z,69.80
2018-09-10T04:38:24.401Z,69.80
2018-09-10T04:40:53.105Z,70.10
2018-09-10T04:43:21.824Z,70.10
2018-09-10T04:45:50.878Z,70.20
2018-09-10T04:48:19.699Z,70.30
2018-09-10T04:50:48.378Z,70.30
2018-09-10T04:53:17.071Z,70.50
2018-09-10T04:55:45.773Z,71.00
2018-09-10T04:58:14.612Z,71.40
2018-09-10T05:00:43.096Z,71.70
2018-09-10T05:03:11.768Z,72.30
2018-09-10T05:05:40.431Z,71.70
2018-09-10T05:08:09.171Z,72.10
2018-09-10T05:10:37.786Z,72.50
2018-09-10T05:13:06.447Z,72.40
2018-09-10T05:15:35.093Z,72.40
2018-09-10T05:18:03.740Z,72.30
2018-09-10T05:20:32.434Z,72.20
2018-09-10T05:23:01.102Z,72.10
2018-09-10T05:25:29.784Z,72.20
2018-09-10T05:27:58.447Z,72.30
2018-09-10T05:30:27.100Z,72.30
2018-09-10T05:32:55.804Z,72.70
2018-09-10T05:35:24.487Z,72.70
2018-09-10T05:37:53.507Z,73.40
2018-09-10T05:40:22.158Z,73.00
2018-09-10T05:42:50.858Z,73.30
2018-09-10T05:45:19.555Z,73.80
2018-09-10T05:47:48.782Z,73.40
2018-09-10T05:50:17.436Z,73.80
2018-09-10T05:52:46.280Z,74.10
2018-09-10T05:55:14.945Z,73.40
2018-09-10T05:57:43.616Z,73.10
2018-09-10T06:00:12.273Z,70.60
2018-09-10T06:02:40.950Z,70.50
2018-09-10T06:05:09.622Z,69.70
2018-09-10T06:07:38.400Z,69.10
2018-09-10T06:10:07.268Z,69.20
2018-09-10T06:12:35.951Z,68.00
2018-09-10T06:15:04.747Z,68.30
2018-09-10T06:17:33.374Z,68.90
2018-09-10T06:20:02.038Z,69.20
2018-09-10T06:22:30.719Z,69.20
2018-09-10T06:24:59.433Z,69.60
2018-09-10T06:27:28.069Z,69.50
2018-09-10T06:29:56.776Z,69.30
2018-09-10T06:32:25.787Z,68.80
2018-09-10T06:34:54.437Z,69.00
2018-09-10T06:37:23.126Z,68.90
2018-09-10T06:39:51.785Z,68.30
2018-09-10T06:42:20.471Z,68.30
2018-09-10T06:44:49.117Z,68.00
2018-09-10T06:47:17.810Z,67.80
2018-09-10T06:49:46.498Z,67.30
2018-09-10T06:52:15.157Z,67.30
2018-09-10T06:54:43.906Z,67.20
2018-09-10T06:57:12.555Z,67.20
2018-09-10T06:59:41.293Z,67.40
2018-09-10T07:02:09.916Z,68.00
2018-09-10T07:04:38.589Z,68.10
2018-09-10T07:07:07.314Z,68.30
2018-09-10T07:09:35.970Z,68.10
2018-09-10T07:12:04.632Z,68.20
2018-09-10T07:14:33.300Z,68.30
2018-09-10T07:17:01.940Z,68.60
2018-09-10T07:19:30.649Z,68.70
2018-09-10T07:21:59.501Z,68.50
2018-09-10T07:24:28.168Z,68.70
2018-09-10T07:26:56.828Z,68.50
2018-09-10T07:29:25.521Z,67.80
2018-09-10T07:31:54.184Z,68.30
2018-09-10T07:34:22.844Z,68.30
2018-09-10T07:36:51.558Z,68.80
2018-09-10T07:39:20.216Z,68.70
2018-09-10T07:41:48.882Z,69.20
2018-09-10T07:44:17.611Z,70.00
2018-09-10T07:46:46.240Z,70.30
2018-09-10T07:49:14.900Z,70.60
2018-09-10T07:51:43.556Z,70.40
2018-09-10T07:54:12.252Z,70.40
2018-09-10T07:56:40.940Z,70.30
2018-09-10T07:59:09.728Z,69.80
2018-09-10T08:01:38.686Z,69.20
2018-09-10T08:04:07.510Z,69.30
2018-09-10T08:06:36.423Z,66.80
2018-09-10T08:09:07.162Z,64.80
2018-09-10T08:11:35.822Z,64.50
2018-09-10T08:14:04.492Z,64.60
2018-09-10T08:16:33.186Z,64.40
2018-09-10T08:19:01.820Z,64.10
2018-09-10T08:21:30.487Z,64.00
2018-09-10T08:23:59.221Z,64.50
2018-09-10T08:26:27.864Z,64.50
2018-09-10T08:28:56.500Z,65.00
2018-09-10T08:31:25.190Z,64.70
2018-09-10T08:33:53.955Z,65.60
2018-09-10T08:36:22.637Z,65.70
2018-09-10T08:38:51.392Z,65.70
2018-09-10T08:41:20.073Z,65.50
2018-09-10T08:43:48.759Z,65.30
2018-09-10T08:46:17.563Z,65.30
2018-09-10T08:48:46.257Z,65.10
2018-09-10T08:51:14.899Z,65.00
2018-09-10T08:53:43.576Z,64.10
2018-09-10T08:56:12.509Z,64.10
2018-09-10T08:58:40.924Z,61.10
2018-09-10T09:01:09.591Z,60.30
2018-09-10T09:03:38.248Z,59.50
2018-09-10T09:06:06.931Z,58.60
2018-09-10T09:08:35.562Z,58.80
2018-09-10T09:11:04.248Z,58.70
2018-09-10T09:13:32.902Z,57.30
2018-09-10T09:16:01.619Z,55.80
2018-09-10T09:18:30.275Z,55.30
2018-09-10T09:20:58.921Z,53.90
2018-09-10T09:23:27.607Z,52.00
2018-09-10T09:25:56.264Z,51.90
2018-09-10T09:28:24.936Z,50.30
2018-09-10T09:30:53.613Z,50.40
2018-09-10T09:33:22.296Z,50.70
2018-09-10T09:35:56.355Z,50.40
2018-09-10T09:38:30.532Z,51.40
2018-09-10T09:41:04.674Z,51.00
2018-09-10T09:43:38.733Z,50.90
2018-09-10T09:46:10.786Z,51.10
2018-09-10T09:48:39.494Z,51.50
2018-09-10T09:51:08.219Z,52.40
2018-09-10T09:53:37.247Z,52.20
2018-09-10T09:56:05.938Z,51.60
2018-09-10T09:58:34.624Z,52.40
2018-09-10T10:01:08.649Z,52.20
2018-09-10T10:03:42.693Z,52.30
2018-09-10T10:06:11.382Z,53.00
2018-09-10T10:08:40.139Z,52.70
2018-09-10T10:11:08.843Z,52.60
2018-09-10T10:13:37.520Z,52.00
2018-09-10T10:16:06.183Z,52.00
2018-09-10T10:18:34.833Z,51.10
2018-09-10T10:21:03.515Z,50.70
2018-09-10T10:23:32.154Z,50.30
2018-09-10T10:26:00.839Z,49.40
2018-09-10T10:28:29.541Z,49.10
2018-09-10T10:30:58.464Z,48.80
2018-09-10T10:33:27.287Z,47.20
2018-09-10T10:35:55.955Z,47.20
2018-09-10T10:38:24.629Z,47.40
2018-09-10T10:40:53.273Z,47.00
2018-09-10T10:43:21.996Z,45.10
2018-09-10T10:45:50.676Z,45.30
2018-09-10T10:48:19.373Z,44.90
2018-09-10T10:50:48.051Z,44.10
2018-09-10T10:53:16.891Z,44.50
2018-09-10T10:55:45.520Z,44.90
2018-09-10T10:58:14.393Z,43.70
2018-09-10T11:00:43.070Z,43.70
2018-09-10T11:03:11.747Z,43.80
2018-09-10T11:05:40.449Z,45.20
2018-09-10T11:08:09.155Z,43.00
2018-09-10T11:10:37.863Z,43.60
2018-09-10T11:13:06.540Z,43.60
2018-09-10T11:15:35.251Z,42.40
2018-09-10T11:18:03.903Z,43.30
2018-09-10T11:20:32.613Z,44.30
2018-09-10T11:23:02.304Z,43.60
2018-09-10T11:25:30.986Z,43.00
2018-09-10T11:27:59.648Z,42.50
2018-09-10T11:30:28.324Z,42.30
2018-09-10T11:32:57.006Z,41.90
2018-09-10T11:35:25.702Z,40.60
2018-09-10T11:37:54.372Z,41.10
2018-09-10T11:40:23.059Z,41.40
2018-09-10T11:42:51.780Z,41.50
2018-09-10T11:45:20.426Z,42.70
2018-09-10T11:47:50.429Z,42.70
2018-09-10T11:50:19.113Z,42.30
2018-09-10T11:52:47.788Z,42.60
2018-09-10T11:55:16.436Z,41.60
2018-09-10T11:57:47.698Z,41.60
2018-09-10T12:00:16.348Z,41.70
2018-09-10T12:02:45.021Z,41.60
2018-09-10T12:05:13.648Z,41.40
2018-09-10T12:07:43.228Z,40.90
2018-09-10T12:10:11.980Z,40.80
2018-09-10T12:12:40.652Z,40.70
2018-09-10T12:15:09.000Z,41.00
2018-09-10T12:17:37.692Z,41.30
2018-09-10T12:20:06.347Z,40.50
2018-09-10T12:22:35.044Z,40.80
2018-09-10T12:25:03.706Z,40.70
2018-09-10T12:27:32.346Z,40.40
2018-09-10T12:30:01.045Z,41.40
2018-09-10T12:32:29.764Z,40.70
2018-09-10T12:34:58.352Z,40.90
2018-09-10T12:37:27.042Z,41.70
2018-09-10T12:39:55.727Z,40.40
2018-09-10T12:42:24.379Z,40.70
2018-09-10T12:44:53.068Z,41.10
2018-09-10T12:47:21.929Z,40.00
2018-09-10T12:49:50.588Z,39.70
2018-09-10T12:52:19.296Z,39.80
2018-09-10T12:54:47.967Z,40.20
2018-09-10T12:57:16.668Z,39.70
2018-09-10T13:02:30.112Z,39.60
2018-09-10T13:04:58.780Z,39.40
2018-09-10T13:07:27.432Z,39.50
2018-09-10T13:09:56.108Z,39.90
2018-09-10T13:12:24.805Z,39.90
2018-09-10T13:14:53.481Z,39.90
2018-09-10T13:17:22.216Z,40.40
2018-09-10T13:19:50.939Z,40.50
2018-09-10T13:22:19.591Z,40.70
2018-09-10T13:24:48.247Z,40.30
2018-09-10T13:27:16.899Z,39.80
2018-09-10T13:29:45.649Z,39.70
2018-09-10T13:32:14.223Z,39.40
2018-09-10T13:34:42.912Z,39.00
2018-09-10T13:37:11.593Z,39.70
2018-09-10T13:39:40.204Z,39.00
2018-09-10T13:42:08.864Z,39.20
2018-09-10T13:44:37.556Z,39.00
2018-09-10T13:47:06.264Z,39.90
2018-09-10T13:49:34.926Z,40.20
2018-09-10T13:52:03.604Z,39.80
2018-09-10T13:54:32.289Z,39.00
2018-09-10T13:57:00.953Z,39.40
2018-09-10T13:59:29.604Z,39.50
2018-09-10T14:01:58.254Z,39.00
2018-09-10T14:04:26.922Z,38.50
2018-09-10T14:06:55.592Z,38.50
2018-09-10T14:09:24.420Z,38.40
2018-09-10T14:11:53.190Z,38.40
2018-09-10T14:14:22.045Z,38.80
2018-09-10T14:16:50.820Z,39.20
2018-09-10T14:19:19.469Z,39.60
2018-09-10T14:21:48.186Z,39.50
2018-09-10T14:24:16.843Z,39.80
2018-09-10T14:26:45.517Z,39.30
2018-09-10T14:29:14.225Z,39.80
2018-09-10T14:31:42.877Z,39.80
2018-09-10T14:34:11.585Z,39.70
2018-09-10T14:36:40.211Z,40.60
2018-09-10T14:39:09.367Z,40.70
2018-09-10T14:41:38.056Z,41.10
2018-09-10T14:44:06.746Z,41.40
2018-09-10T14:46:35.451Z,41.50
2018-09-10T14:49:04.107Z,41.70
2018-09-10T14:51:32.824Z,41.60
2018-09-10T14:54:01.506Z,41.10
2018-09-10T14:56:30.156Z,41.10
2018-09-10T14:58:58.943Z,40.70
2018-09-10T15:01:27.602Z,40.80
2018-09-10T15:03:56.315Z,40.30
2018-09-10T15:06:24.963Z,40.20
2018-09-10T15:08:53.625Z,40.70
2018-09-10T15:11:22.279Z,40.70
2018-09-10T15:13:50.948Z,41.00
2018-09-10T15:16:19.691Z,41.40
2018-09-10T15:18:48.448Z,42.10
2018-09-10T15:21:17.009Z,42.50
2018-09-10T15:23:45.720Z,42.80
2018-09-10T15:26:14.404Z,42.80
2018-09-10T15:28:43.871Z,47.30
2018-09-10T15:31:12.728Z,47.80
2018-09-10T15:33:41.601Z,46.60
2018-09-10T15:36:10.361Z,46.30
2018-09-10T15:38:39.021Z,45.20
2018-09-10T15:41:08.215Z,45.00
2018-09-10T15:43:36.969Z,45.00
2018-09-10T15:46:05.663Z,45.20
2018-09-10T15:48:34.337Z,45.30
2018-09-10T15:51:03.056Z,46.20
2018-09-10T15:53:31.679Z,46.40
2018-09-10T15:56:00.333Z,46.30
2018-09-10T15:58:29.155Z,47.40
2018-09-10T16:00:57.942Z,48.30
2018-09-10T16:03:26.721Z,46.90
2018-09-10T16:05:55.447Z,47.80
2018-09-10T16:08:24.310Z,47.30
2018-09-10T16:10:53.144Z,47.50
2018-09-10T16:13:21.960Z,47.50
2018-09-10T16:15:50.793Z,47.80
2018-09-10T16:18:19.473Z,48.10
2018-09-10T16:20:48.126Z,48.10
2018-09-10T16:23:16.867Z,48.10
2018-09-10T16:25:45.516Z,48.10
2018-09-10T16:28:14.241Z,48.70
2018-09-10T16:30:43.012Z,49.90
2018-09-10T16:33:11.683Z,49.10
2018-09-10T16:35:40.505Z,49.40
2018-09-10T16:38:09.872Z,49.50
2018-09-10T16:40:38.570Z,49.90
2018-09-10T16:43:07.260Z,50.30
2018-09-10T16:45:35.943Z,50.80
2018-09-10T16:48:05.161Z,51.10
2018-09-10T16:50:33.952Z,51.30
2018-09-10T16:53:02.613Z,51.70
2018-09-10T16:55:31.298Z,52.20
2018-09-10T16:57:59.976Z,52.00
2018-09-10T17:00:28.617Z,52.10
2018-09-10T17:02:57.285Z,51.90
2018-09-10T17:05:25.969Z,51.90
2018-09-10T17:08:01.335Z,52.10
2018-09-10T17:10:30.023Z,52.00
2018-09-10T17:12:58.663Z,52.50
2018-09-10T17:15:27.310Z,52.40
2018-09-10T17:17:56.008Z,52.10
2018-09-10T17:20:24.720Z,52.10
2018-09-10T17:22:53.401Z,51.90
2018-09-10T17:25:22.042Z,52.30
2018-09-10T17:27:50.676Z,53.00
2018-09-10T17:30:19.367Z,52.50
2018-09-10T17:32:48.015Z,52.50
2018-09-10T17:35:16.709Z,52.80
2018-09-10T17:37:45.624Z,53.10
2018-09-10T17:40:14.414Z,53.40
2018-09-10T17:42:43.200Z,53.00
2018-09-10T17:45:11.873Z,53.00
2018-09-10T17:47:40.534Z,53.30
2018-09-10T17:50:09.237Z,53.30
2018-09-10T17:52:37.931Z,53.40
2018-09-10T17:55:06.572Z,53.80
2018-09-10T17:57:35.280Z,53.60
2018-09-10T18:00:03.984Z,53.10
2018-09-10T18:02:32.629Z,52.90
2018-09-10T18:05:01.325Z,53.30
2018-09-10T18:07:29.951Z,53.00
2018-09-10T18:09:58.610Z,53.20
2018-09-10T18:12:27.269Z,52.90
2018-09-10T18:14:55.946Z,51.50
2018-09-10T18:17:24.617Z,51.00
2018-09-10T18:19:53.263Z,50.30
2018-09-10T18:22:21.931Z,50.00
2018-09-10T18:24:50.665Z,50.40
2018-09-10T18:27:19.237Z,49.40
2018-09-10T18:29:47.928Z,49.00
2018-09-10T18:32:16.608Z,49.00
2018-09-10T18:34:45.274Z,49.40
2018-09-10T18:37:13.947Z,48.80
2018-09-10T18:39:42.617Z,48.80
2018-09-10T18:42:11.259Z,50.00
2018-09-10T18:44:39.923Z,49.70
2018-09-10T18:47:08.572Z,49.30
2018-09-10T18:49:37.244Z,50.40
2018-09-10T18:52:06.011Z,50.40
2018-09-10T18:54:34.668Z,49.60
2018-09-10T18:57:03.338Z,50.20
2018-09-10T18:59:32.095Z,49.60
2018-09-10T19:02:00.765Z,49.30
2018-09-10T19:04:29.424Z,50.50
2018-09-10T19:06:58.113Z,49.60
2018-09-10T19:09:26.794Z,50.20
2018-09-10T19:11:55.500Z,49.90
2018-09-10T19:14:24.158Z,51.10
2018-09-10T19:16:52.819Z,51.00
2018-09-10T19:19:21.492Z,50.60
2018-09-10T19:21:50.200Z,51.20
2018-09-10T19:24:19.020Z,50.80
2018-09-10T19:26:47.686Z,51.80
2018-09-10T19:29:16.341Z,51.20
2018-09-10T19:31:44.992Z,51.70
2018-09-10T19:34:13.648Z,51.60
2018-09-10T19:36:42.452Z,52.80
2018-09-10T19:39:11.906Z,51.70
2018-09-10T19:41:40.786Z,51.40
2018-09-10T19:44:09.481Z,52.30
2018-09-10T19:46:38.109Z,51.50
2018-09-10T19:49:06.750Z,52.30
2018-09-10T19:51:35.409Z,52.70
2018-09-10T19:54:04.087Z,53.00
2018-09-10T19:56:32.766Z,52.70
2018-09-10T19:59:01.671Z,53.10
2018-09-10T20:01:30.428Z,52.50
2018-09-10T20:03:59.081Z,53.00
2018-09-10T20:06:28.549Z,52.50
2018-09-10T20:08:57.200Z,53.00
2018-09-10T20:11:25.879Z,52.60
2018-09-10T20:13:54.537Z,53.00
2018-09-10T20:16:23.413Z,52.90
2018-09-10T20:18:52.130Z,52.60
2018-09-10T20:21:20.773Z,52.10
2018-09-10T20:23:49.455Z,51.90
2018-09-10T20:26:18.185Z,53.00
2018-09-10T20:28:46.813Z,52.70
2018-09-10T20:31:15.491Z,52.50
2018-09-10T20:33:49.497Z,52.70
2018-09-10T20:36:18.236Z,52.90
2018-09-10T20:38:46.979Z,52.90
2018-09-10T20:41:16.067Z,53.20
2018-09-10T20:43:44.711Z,53.20
2018-09-10T20:46:13.593Z,53.30
2018-09-10T20:48:42.384Z,53.40
2018-09-10T20:51:11.032Z,53.40
2018-09-10T20:53:39.718Z,53.50
2018-09-10T20:56:08.398Z,54.00
2018-09-10T20:58:37.060Z,53.90
2018-09-10T21:01:05.816Z,54.20
2018-09-10T21:03:34.482Z,54.20
2018-09-10T21:06:03.196Z,54.20
2018-09-10T21:08:31.886Z,54.20
2018-09-10T21:11:00.595Z,54.50
2018-09-10T21:13:29.206Z,54.60
2018-09-10T21:15:57.867Z,55.10
2018-09-10T21:18:26.988Z,55.00
2018-09-10T21:20:55.659Z,55.20
2018-09-10T21:23:24.330Z,55.30
2018-09-10T21:25:52.988Z,55.60
2018-09-10T21:28:21.674Z,55.30
2018-09-10T21:30:50.578Z,55.70
2018-09-10T21:33:19.246Z,55.90
2018-09-10T21:35:47.882Z,55.90
2018-09-10T21:38:17.108Z,55.90
2018-09-10T21:40:45.768Z,56.10
2018-09-10T21:43:14.478Z,56.40
2018-09-10T21:45:43.149Z,56.50
2018-09-10T21:48:11.773Z,56.40
2018-09-10T21:50:40.459Z,56.50
2018-09-10T21:53:09.136Z,55.40
2018-09-10T21:55:37.784Z,55.30
2018-09-10T21:58:06.677Z,55.40
2018-09-10T22:00:35.343Z,55.40
2018-09-10T22:03:04.047Z,55.40
2018-09-10T22:05:32.690Z,56.20
2018-09-10T22:08:01.385Z,55.60
2018-09-10T22:10:30.104Z,55.80
2018-09-10T22:12:58.717Z,55.70
2018-09-10T22:15:27.457Z,56.00
2018-09-10T22:17:56.222Z,56.00
2018-09-10T22:20:24.869Z,55.90
2018-09-10T22:22:53.528Z,55.70
2018-09-10T22:25:22.204Z,55.80
2018-09-10T22:27:50.854Z,55.80
2018-09-10T22:30:19.484Z,55.90
2018-09-10T22:32:49.099Z,56.00
2018-09-10T22:35:17.818Z,55.80
2018-09-10T22:37:46.510Z,55.80
2018-09-10T22:40:15.157Z,55.90
2018-09-10T22:42:43.831Z,55.80
2018-09-10T22:45:12.466Z,55.90
2018-09-10T22:47:41.198Z,56.10
2018-09-10T22:50:10.007Z,56.20
2018-09-10T22:52:38.990Z,56.20
2018-09-10T22:55:08.132Z,56.40
2018-09-10T22:57:36.800Z,56.40
2018-09-10T23:00:06.150Z,56.50
2018-09-10T23:02:34.802Z,56.50
2018-09-10T23:05:03.582Z,56.50
2018-09-10T23:07:32.262Z,56.50
2018-09-10T23:10:01.204Z,56.50
2018-09-10T23:12:29.864Z,56.50
2018-09-10T23:14:58.500Z,56.50
2018-09-10T23:17:27.194Z,56.50
2018-09-10T23:19:55.856Z,56.60
2018-09-10T23:22:24.514Z,56.70
2018-09-10T23:24:53.168Z,57.40
2018-09-10T23:27:21.822Z,56.90
2018-09-10T23:29:50.604Z,56.80
2018-09-10T23:32:19.566Z,57.00
2018-09-10T23:34:48.395Z,57.00
2018-09-10T23:37:17.174Z,57.10
2018-09-10T23:39:45.874Z,57.10
2018-09-10T23:42:14.508Z,57.20
2018-09-10T23:44:43.175Z,57.30
2018-09-10T23:47:11.784Z,57.30
2018-09-10T23:49:40.506Z,57.00
2018-09-10T23:52:09.113Z,57.10
2018-09-10T23:54:37.768Z,57.30
2018-09-10T23:57:06.400Z,57.30
2018-09-10T23:59:35.024Z,57.20
